sensor_id;sensor_type;location;lat;lon;timestamp;pressure;altitude;pressure_sealevel;temperature;humidity
53526;BME280;40551;50.478;19.378;2023-07-22T00:01:57;97398.27;;;16.61;83.64
53526;BME280;40551;50.478;19.378;2023-07-22T00:04:29;97398.23;;;16.58;83.72
53526;BME280;40551;50.478;19.378;2023-07-22T00:07:00;97400.11;;;16.56;83.62
53526;BME280;40551;50.478;19.378;2023-07-22T00:09:30;97400.99;;;16.51;83.69
53526;BME280;40551;50.478;19.378;2023-07-22T00:12:04;97394.95;;;16.46;83.97
53526;BME280;40551;50.478;19.378;2023-07-22T00:14:34;97390.05;;;16.41;83.99
53526;BME280;40551;50.478;19.378;2023-07-22T00:17:07;97392.12;;;16.36;83.77
53526;BME280;40551;50.478;19.378;2023-07-22T00:19:38;97393.71;;;16.31;84.12
53526;BME280;40551;50.478;19.378;2023-07-22T00:22:10;97393.45;;;16.31;84.21
53526;BME280;40551;50.478;19.378;2023-07-22T00:24:41;97391.05;;;16.29;84.26
53526;BME280;40551;50.478;19.378;2023-07-22T00:27:11;97391.38;;;16.26;84.23
53526;BME280;40551;50.478;19.378;2023-07-22T00:29:42;97389.65;;;16.23;84.39
53526;BME280;40551;50.478;19.378;2023-07-22T00:32:13;97389.60;;;16.19;84.34
53526;BME280;40551;50.478;19.378;2023-07-22T00:34:43;97384.42;;;16.15;84.46
53526;BME280;40551;50.478;19.378;2023-07-22T00:37:14;97381.98;;;16.11;84.41
53526;BME280;40551;50.478;19.378;2023-07-22T00:39:45;97378.92;;;16.06;84.44
53526;BME280;40551;50.478;19.378;2023-07-22T00:42:15;97379.63;;;16.01;84.54
53526;BME280;40551;50.478;19.378;2023-07-22T00:44:45;97375.76;;;15.95;84.53
53526;BME280;40551;50.478;19.378;2023-07-22T00:47:17;97372.50;;;15.90;84.51
53526;BME280;40551;50.478;19.378;2023-07-22T00:49:48;97380.43;;;15.88;84.80
53526;BME280;40551;50.478;19.378;2023-07-22T00:52:21;97381.36;;;15.86;85.01
53526;BME280;40551;50.478;19.378;2023-07-22T00:54:52;97381.16;;;15.84;85.03
53526;BME280;40551;50.478;19.378;2023-07-22T00:57:22;97374.02;;;15.80;85.10
53526;BME280;40551;50.478;19.378;2023-07-22T00:59:53;97372.84;;;15.77;84.78
53526;BME280;40551;50.478;19.378;2023-07-22T01:02:24;97370.70;;;15.70;84.77
53526;BME280;40551;50.478;19.378;2023-07-22T01:04:56;97381.50;;;15.67;84.91
53526;BME280;40551;50.478;19.378;2023-07-22T01:07:27;97386.77;;;15.64;85.02
53526;BME280;40551;50.478;19.378;2023-07-22T01:09:57;97386.35;;;15.63;85.13
53526;BME280;40551;50.478;19.378;2023-07-22T01:12:28;97384.53;;;15.62;85.35
53526;BME280;40551;50.478;19.378;2023-07-22T01:14:59;97391.18;;;15.60;85.29
53526;BME280;40551;50.478;19.378;2023-07-22T01:17:32;97391.58;;;15.59;85.32
53526;BME280;40551;50.478;19.378;2023-07-22T01:20:04;97394.84;;;15.59;85.44
53526;BME280;40551;50.478;19.378;2023-07-22T01:22:36;97396.33;;;15.58;85.43
53526;BME280;40551;50.478;19.378;2023-07-22T01:25:07;97389.45;;;15.57;85.33
53526;BME280;40551;50.478;19.378;2023-07-22T01:27:37;97379.91;;;15.53;85.44
53526;BME280;40551;50.478;19.378;2023-07-22T01:30:11;97378.73;;;15.47;85.32
53526;BME280;40551;50.478;19.378;2023-07-22T01:32:42;97385.11;;;15.43;85.48
53526;BME280;40551;50.478;19.378;2023-07-22T01:35:12;97386.05;;;15.41;85.35
53526;BME280;40551;50.478;19.378;2023-07-22T01:37:42;97384.97;;;15.39;85.42
53526;BME280;40551;50.478;19.378;2023-07-22T01:40:14;97377.78;;;15.36;85.45
53526;BME280;40551;50.478;19.378;2023-07-22T01:42:44;97376.38;;;15.31;85.21
53526;BME280;40551;50.478;19.378;2023-07-22T01:45:14;97370.06;;;15.25;85.39
53526;BME280;40551;50.478;19.378;2023-07-22T01:47:45;97375.96;;;15.24;85.44
53526;BME280;40551;50.478;19.378;2023-07-22T01:50:17;97382.38;;;15.23;85.53
53526;BME280;40551;50.478;19.378;2023-07-22T01:52:47;97379.02;;;15.22;85.29
53526;BME280;40551;50.478;19.378;2023-07-22T01:55:18;97375.63;;;15.21;85.26
53526;BME280;40551;50.478;19.378;2023-07-22T01:57:50;97379.28;;;15.19;85.29
53526;BME280;40551;50.478;19.378;2023-07-22T02:00:21;97383.04;;;15.17;85.28
53526;BME280;40551;50.478;19.378;2023-07-22T02:02:51;97382.38;;;15.14;85.22
53526;BME280;40551;50.478;19.378;2023-07-22T02:05:22;97387.05;;;15.11;85.21
53526;BME280;40551;50.478;19.378;2023-07-22T02:07:51;97388.45;;;15.08;85.28
53526;BME280;40551;50.478;19.378;2023-07-22T02:10:25;97385.20;;;15.06;85.37
53526;BME280;40551;50.478;19.378;2023-07-22T02:13:02;97385.27;;;15.04;85.42
53526;BME280;40551;50.478;19.378;2023-07-22T02:15:33;97384.98;;;15.02;85.48
53526;BME280;40551;50.478;19.378;2023-07-22T02:18:08;97388.02;;;15.00;85.72
53526;BME280;40551;50.478;19.378;2023-07-22T02:20:39;97388.58;;;15.00;85.70
53526;BME280;40551;50.478;19.378;2023-07-22T02:23:12;97383.85;;;14.99;85.79
53526;BME280;40551;50.478;19.378;2023-07-22T02:25:41;97380.70;;;14.98;85.62
53526;BME280;40551;50.478;19.378;2023-07-22T02:28:12;97381.03;;;14.95;85.80
53526;BME280;40551;50.478;19.378;2023-07-22T02:30:44;97374.65;;;14.94;86.03
53526;BME280;40551;50.478;19.378;2023-07-22T02:33:14;97370.36;;;14.94;85.83
53526;BME280;40551;50.478;19.378;2023-07-22T02:35:45;97378.17;;;14.93;86.02
53526;BME280;40551;50.478;19.378;2023-07-22T02:38:16;97384.27;;;14.93;86.14
53526;BME280;40551;50.478;19.378;2023-07-22T02:40:46;97386.89;;;14.93;86.23
53526;BME280;40551;50.478;19.378;2023-07-22T02:43:17;97398.05;;;14.93;86.25
53526;BME280;40551;50.478;19.378;2023-07-22T02:45:52;97403.41;;;14.95;86.39
53526;BME280;40551;50.478;19.378;2023-07-22T02:48:23;97406.67;;;14.97;86.35
53526;BME280;40551;50.478;19.378;2023-07-22T02:50:54;97408.06;;;14.98;86.56
53526;BME280;40551;50.478;19.378;2023-07-22T02:53:26;97404.70;;;14.97;86.41
53526;BME280;40551;50.478;19.378;2023-07-22T02:55:56;97409.75;;;14.96;86.51
53526;BME280;40551;50.478;19.378;2023-07-22T02:58:28;97412.98;;;14.97;86.58
53526;BME280;40551;50.478;19.378;2023-07-22T03:00:58;97417.30;;;14.97;86.55
53526;BME280;40551;50.478;19.378;2023-07-22T03:03:29;97416.98;;;14.95;86.55
53526;BME280;40551;50.478;19.378;2023-07-22T03:06:03;97416.77;;;14.96;86.62
53526;BME280;40551;50.478;19.378;2023-07-22T03:08:35;97422.00;;;14.96;86.82
53526;BME280;40551;50.478;19.378;2023-07-22T03:11:06;97425.30;;;14.97;86.84
53526;BME280;40551;50.478;19.378;2023-07-22T03:13:39;97420.45;;;15.00;87.13
53526;BME280;40551;50.478;19.378;2023-07-22T03:16:18;97422.93;;;15.03;87.26
53526;BME280;40551;50.478;19.378;2023-07-22T03:18:48;97423.69;;;15.07;87.71
53526;BME280;40551;50.478;19.378;2023-07-22T03:21:18;97428.10;;;15.09;87.78
53526;BME280;40551;50.478;19.378;2023-07-22T03:23:48;97426.41;;;15.12;87.76
53526;BME280;40551;50.478;19.378;2023-07-22T03:26:18;97431.04;;;15.16;88.22
53526;BME280;40551;50.478;19.378;2023-07-22T03:28:48;97430.38;;;15.22;88.31
53526;BME280;40551;50.478;19.378;2023-07-22T03:31:19;97432.98;;;15.24;88.38
53526;BME280;40551;50.478;19.378;2023-07-22T03:33:49;97441.34;;;15.31;88.43
53526;BME280;40551;50.478;19.378;2023-07-22T03:36:22;97443.21;;;15.35;88.52
53526;BME280;40551;50.478;19.378;2023-07-22T03:38:57;97449.12;;;15.38;88.56
53526;BME280;40551;50.478;19.378;2023-07-22T03:41:27;97454.52;;;15.43;88.74
53526;BME280;40551;50.478;19.378;2023-07-22T03:43:58;97458.83;;;15.47;88.56
53526;BME280;40551;50.478;19.378;2023-07-22T03:46:29;97467.77;;;15.51;88.57
53526;BME280;40551;50.478;19.378;2023-07-22T03:49:00;97467.36;;;15.55;88.85
53526;BME280;40551;50.478;19.378;2023-07-22T03:51:30;97473.70;;;15.59;89.00
53526;BME280;40551;50.478;19.378;2023-07-22T03:53:59;97474.86;;;15.62;89.11
53526;BME280;40551;50.478;19.378;2023-07-22T03:56:32;97479.15;;;15.68;89.34
53526;BME280;40551;50.478;19.378;2023-07-22T03:59:04;97476.29;;;15.71;89.46
53526;BME280;40551;50.478;19.378;2023-07-22T04:01:35;97475.99;;;15.75;89.74
53526;BME280;40551;50.478;19.378;2023-07-22T04:04:07;97481.38;;;15.79;89.76
53526;BME280;40551;50.478;19.378;2023-07-22T04:06:38;97481.13;;;15.84;89.97
53526;BME280;40551;50.478;19.378;2023-07-22T04:09:12;97487.14;;;15.88;89.93
53526;BME280;40551;50.478;19.378;2023-07-22T04:11:42;97489.98;;;15.92;90.16
53526;BME280;40551;50.478;19.378;2023-07-22T04:14:12;97497.40;;;15.96;89.96
53526;BME280;40551;50.478;19.378;2023-07-22T04:16:42;97501.60;;;15.99;90.05
53526;BME280;40551;50.478;19.378;2023-07-22T04:19:14;97508.75;;;16.03;90.02
53526;BME280;40551;50.478;19.378;2023-07-22T04:21:47;97505.73;;;16.06;90.22
53526;BME280;40551;50.478;19.378;2023-07-22T04:24:16;97498.55;;;16.09;90.17
53526;BME280;40551;50.478;19.378;2023-07-22T04:26:47;97497.19;;;16.12;90.21
53526;BME280;40551;50.478;19.378;2023-07-22T04:29:17;97505.19;;;16.15;90.21
53526;BME280;40551;50.478;19.378;2023-07-22T04:31:49;97507.22;;;16.18;90.19
53526;BME280;40551;50.478;19.378;2023-07-22T04:34:18;97508.99;;;16.21;90.09
53526;BME280;40551;50.478;19.378;2023-07-22T04:36:50;97508.24;;;16.25;90.03
53526;BME280;40551;50.478;19.378;2023-07-22T04:39:19;97508.90;;;16.28;89.89
53526;BME280;40551;50.478;19.378;2023-07-22T04:41:50;97507.95;;;16.32;89.93
53526;BME280;40551;50.478;19.378;2023-07-22T04:44:20;97514.48;;;16.37;89.83
53526;BME280;40551;50.478;19.378;2023-07-22T04:46:53;97515.87;;;16.40;89.65
53526;BME280;40551;50.478;19.378;2023-07-22T04:49:25;97526.28;;;16.44;89.46
53526;BME280;40551;50.478;19.378;2023-07-22T04:51:54;97536.27;;;16.46;89.57
53526;BME280;40551;50.478;19.378;2023-07-22T04:54:26;97538.20;;;16.49;89.71
53526;BME280;40551;50.478;19.378;2023-07-22T04:56:58;97542.37;;;16.50;89.61
53526;BME280;40551;50.478;19.378;2023-07-22T04:59:40;97551.67;;;16.53;89.63
53526;BME280;40551;50.478;19.378;2023-07-22T05:02:09;97554.17;;;16.53;89.14
53526;BME280;40551;50.478;19.378;2023-07-22T05:04:40;97559.61;;;16.52;89.01
53526;BME280;40551;50.478;19.378;2023-07-22T05:07:10;97558.87;;;16.51;88.93
53526;BME280;40551;50.478;19.378;2023-07-22T05:09:41;97560.78;;;16.52;88.99
53526;BME280;40551;50.478;19.378;2023-07-22T05:12:11;97561.80;;;16.52;88.98
53526;BME280;40551;50.478;19.378;2023-07-22T05:14:42;97565.23;;;16.52;89.03
53526;BME280;40551;50.478;19.378;2023-07-22T05:17:13;97566.52;;;16.53;88.94
53526;BME280;40551;50.478;19.378;2023-07-22T05:19:43;97566.08;;;16.54;89.06
53526;BME280;40551;50.478;19.378;2023-07-22T05:22:15;97570.41;;;16.57;89.09
53526;BME280;40551;50.478;19.378;2023-07-22T05:24:46;97574.88;;;16.59;89.06
53526;BME280;40551;50.478;19.378;2023-07-22T05:27:17;97570.20;;;16.62;88.82
53526;BME280;40551;50.478;19.378;2023-07-22T05:29:48;97562.60;;;16.66;89.00
53526;BME280;40551;50.478;19.378;2023-07-22T05:32:18;97563.83;;;16.70;89.04
53526;BME280;40551;50.478;19.378;2023-07-22T05:35:05;97568.58;;;16.79;88.94
53526;BME280;40551;50.478;19.378;2023-07-22T05:37:35;97578.55;;;16.90;89.32
53526;BME280;40551;50.478;19.378;2023-07-22T05:40:10;97583.24;;;16.99;89.04
53526;BME280;40551;50.478;19.378;2023-07-22T05:42:41;97582.38;;;17.06;88.82
53526;BME280;40551;50.478;19.378;2023-07-22T05:45:12;97582.67;;;17.14;88.91
53526;BME280;40551;50.478;19.378;2023-07-22T05:47:44;97583.47;;;17.19;88.29
53526;BME280;40551;50.478;19.378;2023-07-22T05:50:15;97584.23;;;17.22;87.96
53526;BME280;40551;50.478;19.378;2023-07-22T05:52:47;97587.50;;;17.22;87.81
53526;BME280;40551;50.478;19.378;2023-07-22T05:55:18;97590.55;;;17.23;87.23
53526;BME280;40551;50.478;19.378;2023-07-22T05:57:51;97589.27;;;17.35;87.62
53526;BME280;40551;50.478;19.378;2023-07-22T06:00:23;97592.13;;;17.62;88.16
53526;BME280;40551;50.478;19.378;2023-07-22T06:02:51;97596.13;;;18.00;87.28
53526;BME280;40551;50.478;19.378;2023-07-22T06:05:22;97592.81;;;18.39;87.26
53526;BME280;40551;50.478;19.378;2023-07-22T06:07:51;97590.74;;;19.07;86.78
53526;BME280;40551;50.478;19.378;2023-07-22T06:10:24;97589.70;;;19.91;85.67
53526;BME280;40551;50.478;19.378;2023-07-22T06:12:53;97592.20;;;20.72;83.84
53526;BME280;40551;50.478;19.378;2023-07-22T06:15:23;97596.84;;;21.29;81.98
53526;BME280;40551;50.478;19.378;2023-07-22T06:17:54;97602.52;;;21.74;79.55
53526;BME280;40551;50.478;19.378;2023-07-22T06:20:24;97597.18;;;22.05;77.60
53526;BME280;40551;50.478;19.378;2023-07-22T06:22:55;97594.88;;;22.49;75.69
53526;BME280;40551;50.478;19.378;2023-07-22T06:25:24;97595.83;;;23.14;75.31
53526;BME280;40551;50.478;19.378;2023-07-22T06:27:56;97600.91;;;23.50;73.33
53526;BME280;40551;50.478;19.378;2023-07-22T06:30:26;97601.60;;;24.02;72.76
53526;BME280;40551;50.478;19.378;2023-07-22T06:32:55;97602.19;;;24.47;70.68
53526;BME280;40551;50.478;19.378;2023-07-22T06:35:24;97603.30;;;24.87;68.85
53526;BME280;40551;50.478;19.378;2023-07-22T06:37:54;97608.52;;;25.28;68.22
53526;BME280;40551;50.478;19.378;2023-07-22T06:40:24;97610.33;;;25.42;66.02
53526;BME280;40551;50.478;19.378;2023-07-22T06:42:55;97614.38;;;25.33;64.74
53526;BME280;40551;50.478;19.378;2023-07-22T06:45:30;97621.04;;;25.61;64.60
53526;BME280;40551;50.478;19.378;2023-07-22T06:48:01;97625.67;;;26.22;63.92
53526;BME280;40551;50.478;19.378;2023-07-22T06:50:31;97623.35;;;26.76;61.81
53526;BME280;40551;50.478;19.378;2023-07-22T06:53:02;97622.02;;;27.12;60.58
53526;BME280;40551;50.478;19.378;2023-07-22T06:55:33;97628.73;;;27.20;58.94
53526;BME280;40551;50.478;19.378;2023-07-22T06:58:02;97629.09;;;27.06;57.35
53526;BME280;40551;50.478;19.378;2023-07-22T07:00:33;97636.80;;;27.12;57.00
53526;BME280;40551;50.478;19.378;2023-07-22T07:03:08;97641.30;;;27.39;56.54
53526;BME280;40551;50.478;19.378;2023-07-22T07:05:38;97636.91;;;27.62;55.91
53526;BME280;40551;50.478;19.378;2023-07-22T07:08:10;97643.25;;;27.87;55.59
53526;BME280;40551;50.478;19.378;2023-07-22T07:10:42;97646.98;;;28.08;54.74
53526;BME280;40551;50.478;19.378;2023-07-22T07:13:12;97650.56;;;28.37;54.48
53526;BME280;40551;50.478;19.378;2023-07-22T07:15:45;97651.14;;;28.46;53.19
53526;BME280;40551;50.478;19.378;2023-07-22T07:18:19;97655.10;;;28.51;52.16
53526;BME280;40551;50.478;19.378;2023-07-22T07:20:48;97656.16;;;28.44;52.03
53526;BME280;40551;50.478;19.378;2023-07-22T07:23:19;97657.86;;;28.33;50.89
53526;BME280;40551;50.478;19.378;2023-07-22T07:25:49;97663.13;;;28.18;50.70
53526;BME280;40551;50.478;19.378;2023-07-22T07:28:19;97665.52;;;27.85;51.38
53526;BME280;40551;50.478;19.378;2023-07-22T07:30:49;97668.68;;;27.45;51.12
53526;BME280;40551;50.478;19.378;2023-07-22T07:33:19;97668.04;;;26.88;50.88
53526;BME280;40551;50.478;19.378;2023-07-22T07:35:48;97669.90;;;26.48;51.67
53526;BME280;40551;50.478;19.378;2023-07-22T07:38:17;97669.35;;;26.18;51.77
53526;BME280;40551;50.478;19.378;2023-07-22T07:40:56;97666.48;;;25.88;52.27
53526;BME280;40551;50.478;19.378;2023-07-22T07:43:27;97664.48;;;25.56;52.62
53526;BME280;40551;50.478;19.378;2023-07-22T07:46:12;97664.90;;;25.21;52.85
53526;BME280;40551;50.478;19.378;2023-07-22T07:48:44;97666.27;;;24.89;53.40
53526;BME280;40551;50.478;19.378;2023-07-22T07:51:16;97669.41;;;24.57;54.04
53526;BME280;40551;50.478;19.378;2023-07-22T07:53:49;97674.14;;;24.28;54.37
53526;BME280;40551;50.478;19.378;2023-07-22T07:56:21;97677.32;;;24.06;55.26
53526;BME280;40551;50.478;19.378;2023-07-22T07:58:53;97671.66;;;23.90;55.24
53526;BME280;40551;50.478;19.378;2023-07-22T08:01:22;97670.17;;;23.74;54.96
53526;BME280;40551;50.478;19.378;2023-07-22T08:03:52;97673.84;;;23.63;55.12
53526;BME280;40551;50.478;19.378;2023-07-22T08:06:21;97674.98;;;23.47;55.28
53526;BME280;40551;50.478;19.378;2023-07-22T08:08:51;97673.73;;;23.27;54.64
53526;BME280;40551;50.478;19.378;2023-07-22T08:11:22;97679.08;;;23.15;55.19
53526;BME280;40551;50.478;19.378;2023-07-22T08:14:06;97683.95;;;23.02;55.69
53526;BME280;40551;50.478;19.378;2023-07-22T08:16:39;97688.36;;;22.88;55.61
53526;BME280;40551;50.478;19.378;2023-07-22T08:19:09;97691.34;;;22.74;55.70
53526;BME280;40551;50.478;19.378;2023-07-22T08:21:38;97696.17;;;22.73;56.32
53526;BME280;40551;50.478;19.378;2023-07-22T08:24:11;97697.06;;;22.73;55.87
53526;BME280;40551;50.478;19.378;2023-07-22T08:26:41;97699.20;;;22.66;55.61
53526;BME280;40551;50.478;19.378;2023-07-22T08:29:11;97703.59;;;22.68;56.09
53526;BME280;40551;50.478;19.378;2023-07-22T08:31:41;97709.58;;;22.66;55.50
53526;BME280;40551;50.478;19.378;2023-07-22T08:34:12;97714.06;;;22.71;55.88
53526;BME280;40551;50.478;19.378;2023-07-22T08:36:42;97722.19;;;22.79;55.10
53526;BME280;40551;50.478;19.378;2023-07-22T08:39:12;97729.76;;;22.60;54.02
53526;BME280;40551;50.478;19.378;2023-07-22T08:41:47;97739.92;;;22.35;54.22
53526;BME280;40551;50.478;19.378;2023-07-22T08:44:21;97735.27;;;22.21;54.92
53526;BME280;40551;50.478;19.378;2023-07-22T08:46:56;97733.89;;;22.28;56.11
53526;BME280;40551;50.478;19.378;2023-07-22T08:49:28;97739.73;;;22.34;56.02
53526;BME280;40551;50.478;19.378;2023-07-22T08:52:00;97742.87;;;22.46;55.89
53526;BME280;40551;50.478;19.378;2023-07-22T08:54:30;97742.36;;;22.61;56.38
53526;BME280;40551;50.478;19.378;2023-07-22T08:57:00;97741.27;;;22.74;56.06
53526;BME280;40551;50.478;19.378;2023-07-22T08:59:30;97749.50;;;22.88;56.24
53526;BME280;40551;50.478;19.378;2023-07-22T09:02:02;97748.16;;;22.98;55.27
53526;BME280;40551;50.478;19.378;2023-07-22T09:04:33;97750.42;;;23.01;54.81
53526;BME280;40551;50.478;19.378;2023-07-22T09:07:04;97744.48;;;23.05;54.40
53526;BME280;40551;50.478;19.378;2023-07-22T09:09:38;97741.13;;;23.07;53.89
53526;BME280;40551;50.478;19.378;2023-07-22T09:12:09;97744.45;;;23.11;54.04
53526;BME280;40551;50.478;19.378;2023-07-22T09:14:40;97749.42;;;23.12;54.11
53526;BME280;40551;50.478;19.378;2023-07-22T09:17:13;97747.67;;;23.10;54.00
53526;BME280;40551;50.478;19.378;2023-07-22T09:19:42;97748.63;;;23.05;53.97
53526;BME280;40551;50.478;19.378;2023-07-22T09:22:11;97744.85;;;23.03;53.78
53526;BME280;40551;50.478;19.378;2023-07-22T09:24:40;97744.45;;;22.98;52.89
53526;BME280;40551;50.478;19.378;2023-07-22T09:27:10;97741.02;;;23.05;53.51
53526;BME280;40551;50.478;19.378;2023-07-22T09:29:39;97741.85;;;23.14;52.84
53526;BME280;40551;50.478;19.378;2023-07-22T09:32:12;97744.95;;;23.23;52.85
53526;BME280;40551;50.478;19.378;2023-07-22T09:34:54;97741.58;;;23.31;52.60
53526;BME280;40551;50.478;19.378;2023-07-22T09:37:28;97745.75;;;23.38;52.90
53526;BME280;40551;50.478;19.378;2023-07-22T09:40:14;97744.41;;;23.44;52.46
53526;BME280;40551;50.478;19.378;2023-07-22T09:42:49;97747.66;;;23.54;52.75
53526;BME280;40551;50.478;19.378;2023-07-22T09:45:21;97745.96;;;23.63;52.17
53526;BME280;40551;50.478;19.378;2023-07-22T09:47:52;97749.50;;;23.74;52.19
53526;BME280;40551;50.478;19.378;2023-07-22T09:50:23;97747.64;;;23.80;51.77
53526;BME280;40551;50.478;19.378;2023-07-22T09:52:55;97755.52;;;23.69;51.29
53526;BME280;40551;50.478;19.378;2023-07-22T09:55:31;97754.21;;;23.67;51.81
53526;BME280;40551;50.478;19.378;2023-07-22T09:58:04;97752.26;;;23.74;51.92
53526;BME280;40551;50.478;19.378;2023-07-22T10:00:37;97754.35;;;23.76;51.13
53526;BME280;40551;50.478;19.378;2023-07-22T10:03:20;97756.11;;;23.75;50.80
53526;BME280;40551;50.478;19.378;2023-07-22T10:05:57;97759.40;;;23.75;50.68
53526;BME280;40551;50.478;19.378;2023-07-22T10:08:34;97757.66;;;23.83;49.91
53526;BME280;40551;50.478;19.378;2023-07-22T10:11:09;97753.42;;;23.92;50.43
53526;BME280;40551;50.478;19.378;2023-07-22T10:13:40;97755.40;;;24.02;49.89
53526;BME280;40551;50.478;19.378;2023-07-22T10:16:11;97756.89;;;24.10;49.76
53526;BME280;40551;50.478;19.378;2023-07-22T10:18:41;97762.94;;;24.10;49.31
53526;BME280;40551;50.478;19.378;2023-07-22T10:21:14;97766.94;;;23.97;48.75
53526;BME280;40551;50.478;19.378;2023-07-22T10:23:48;97768.39;;;23.81;48.80
53526;BME280;40551;50.478;19.378;2023-07-22T10:26:20;97770.99;;;23.61;49.01
53526;BME280;40551;50.478;19.378;2023-07-22T10:29:11;97773.88;;;23.39;49.19
53526;BME280;40551;50.478;19.378;2023-07-22T10:31:42;97778.96;;;23.23;50.12
53526;BME280;40551;50.478;19.378;2023-07-22T10:34:12;97777.51;;;23.12;50.20
53526;BME280;40551;50.478;19.378;2023-07-22T10:36:45;97777.52;;;23.06;50.70
53526;BME280;40551;50.478;19.378;2023-07-22T10:39:26;97776.08;;;23.02;50.48
53526;BME280;40551;50.478;19.378;2023-07-22T10:42:01;97773.50;;;22.96;50.10
53526;BME280;40551;50.478;19.378;2023-07-22T10:44:37;97773.38;;;23.04;50.44
53526;BME280;40551;50.478;19.378;2023-07-22T10:47:12;97775.31;;;23.12;50.31
53526;BME280;40551;50.478;19.378;2023-07-22T10:50:09;97776.27;;;23.16;50.10
53526;BME280;40551;50.478;19.378;2023-07-22T10:52:43;97775.68;;;23.10;49.15
53526;BME280;40551;50.478;19.378;2023-07-22T10:55:19;97777.67;;;23.07;49.07
53526;BME280;40551;50.478;19.378;2023-07-22T10:58:17;97773.55;;;23.08;48.73
53526;BME280;40551;50.478;19.378;2023-07-22T11:00:57;97766.77;;;23.08;48.47
53526;BME280;40551;50.478;19.378;2023-07-22T11:04:06;97774.20;;;23.20;48.89
53526;BME280;40551;50.478;19.378;2023-07-22T11:06:58;97776.14;;;23.31;48.32
53526;BME280;40551;50.478;19.378;2023-07-22T11:09:48;97782.09;;;23.30;47.52
53526;BME280;40551;50.478;19.378;2023-07-22T11:12:28;97778.90;;;23.30;47.17
53526;BME280;40551;50.478;19.378;2023-07-22T11:15:08;97777.77;;;23.29;47.57
53526;BME280;40551;50.478;19.378;2023-07-22T11:17:46;97774.67;;;23.19;47.23
53526;BME280;40551;50.478;19.378;2023-07-22T11:20:33;97777.95;;;23.26;48.30
53526;BME280;40551;50.478;19.378;2023-07-22T11:23:18;97777.11;;;23.39;48.04
53526;BME280;40551;50.478;19.378;2023-07-22T11:26:07;97766.39;;;23.55;47.55
53526;BME280;40551;50.478;19.378;2023-07-22T11:29:00;97763.61;;;23.77;47.81
53526;BME280;40551;50.478;19.378;2023-07-22T11:31:37;97765.55;;;23.87;48.16
53526;BME280;40551;50.478;19.378;2023-07-22T11:34:14;97771.85;;;23.83;46.97
53526;BME280;40551;50.478;19.378;2023-07-22T11:36:44;97772.80;;;23.79;47.31
53526;BME280;40551;50.478;19.378;2023-07-22T11:39:16;97774.33;;;23.73;47.09
53526;BME280;40551;50.478;19.378;2023-07-22T11:41:50;97778.15;;;23.61;47.10
53526;BME280;40551;50.478;19.378;2023-07-22T11:44:29;97781.33;;;23.50;47.38
53526;BME280;40551;50.478;19.378;2023-07-22T11:47:00;97780.63;;;23.45;47.23
53526;BME280;40551;50.478;19.378;2023-07-22T11:49:34;97782.81;;;23.44;47.69
53526;BME280;40551;50.478;19.378;2023-07-22T11:52:17;97779.58;;;23.41;47.49
53526;BME280;40551;50.478;19.378;2023-07-22T11:55:14;97783.73;;;23.38;47.80
53526;BME280;40551;50.478;19.378;2023-07-22T11:58:03;97780.27;;;23.26;48.17
53526;BME280;40551;50.478;19.378;2023-07-22T12:00:38;97781.22;;;23.16;47.81
53526;BME280;40551;50.478;19.378;2023-07-22T12:06:29;97781.21;;;22.98;48.14
53526;BME280;40551;50.478;19.378;2023-07-22T12:09:02;97787.38;;;22.93;48.41
53526;BME280;40551;50.478;19.378;2023-07-22T12:11:46;97783.69;;;22.91;49.14
53526;BME280;40551;50.478;19.378;2023-07-22T12:14:33;97781.30;;;22.89;48.97
53526;BME280;40551;50.478;19.378;2023-07-22T12:17:09;97777.11;;;22.86;48.98
53526;BME280;40551;50.478;19.378;2023-07-22T12:19:54;97777.92;;;22.86;49.72
53526;BME280;40551;50.478;19.378;2023-07-22T12:22:27;97777.98;;;22.91;50.53
53526;BME280;40551;50.478;19.378;2023-07-22T12:24:58;97773.20;;;22.95;50.05
53526;BME280;40551;50.478;19.378;2023-07-22T12:27:31;97771.44;;;23.00;49.88
53526;BME280;40551;50.478;19.378;2023-07-22T12:30:03;97767.93;;;23.16;49.66
53526;BME280;40551;50.478;19.378;2023-07-22T12:32:32;97762.20;;;23.29;49.54
53526;BME280;40551;50.478;19.378;2023-07-22T12:35:02;97760.44;;;23.39;49.53
53526;BME280;40551;50.478;19.378;2023-07-22T12:37:33;97755.94;;;23.41;49.52
53526;BME280;40551;50.478;19.378;2023-07-22T12:40:07;97755.11;;;23.41;49.07
53526;BME280;40551;50.478;19.378;2023-07-22T12:42:40;97755.27;;;23.45;48.70
53526;BME280;40551;50.478;19.378;2023-07-22T12:45:12;97753.36;;;23.49;48.40
53526;BME280;40551;50.478;19.378;2023-07-22T12:47:43;97756.10;;;23.52;48.47
53526;BME280;40551;50.478;19.378;2023-07-22T12:50:15;97752.65;;;23.54;48.21
53526;BME280;40551;50.478;19.378;2023-07-22T12:52:47;97747.39;;;23.56;48.48
53526;BME280;40551;50.478;19.378;2023-07-22T12:55:21;97750.12;;;23.56;47.86
53526;BME280;40551;50.478;19.378;2023-07-22T12:57:51;97748.63;;;23.62;47.69
53526;BME280;40551;50.478;19.378;2023-07-22T13:00:22;97747.89;;;23.62;48.08
53526;BME280;40551;50.478;19.378;2023-07-22T13:02:51;97745.98;;;23.63;47.67
53526;BME280;40551;50.478;19.378;2023-07-22T13:05:21;97735.46;;;23.67;47.62
53526;BME280;40551;50.478;19.378;2023-07-22T13:07:51;97731.39;;;23.82;47.50
53526;BME280;40551;50.478;19.378;2023-07-22T13:10:23;97729.94;;;24.00;47.97
53526;BME280;40551;50.478;19.378;2023-07-22T13:12:54;97733.09;;;24.07;47.58
53526;BME280;40551;50.478;19.378;2023-07-22T13:15:25;97733.19;;;23.99;47.50
53526;BME280;40551;50.478;19.378;2023-07-22T13:17:54;97740.42;;;23.89;47.65
53526;BME280;40551;50.478;19.378;2023-07-22T13:20:26;97739.11;;;23.79;47.71
53526;BME280;40551;50.478;19.378;2023-07-22T13:22:57;97746.36;;;23.78;47.90